Time;durP1;ratioP1;P1;durP2;ratioP2;P2;SDS_P1;SDS_P2;PMS_P1;PMS_P2;Temp;Humidity;BMP_temperature;BMP_pressure;BME280_temperature;BME280_humidity;BME280_pressure;Samples;Min_cycle;Max_cycle;Signal;HPM_P1;HPM_P2
2022/01/04 00:01:58;;;;;;;36.17;19.38;;;;;;;7.82;71.45;99979.13;5088584;28;20039;-20
2022/01/04 00:04:24;;;;;;;55.08;27.70;;;;;;;7.82;71.67;99968.50;5088605;28;20020;-21
2022/01/04 00:06:49;;;;;;;43.20;26.17;;;;;;;7.67;71.85;99965.25;5070250;28;20040;-21
2022/01/04 00:09:15;;;;;;;17.02;9.07;;;;;;;7.51;71.78;99956.63;5070390;28;20120;-20
2022/01/04 00:13:20;;;;;;;13.25;7.70;;;;;;;7.09;73.13;99958.56;5088131;28;20071;-20
2022/01/04 00:14:31;;;;;;;15.90;8.50;;;;;;;7.03;73.38;99967.31;5088275;28;20031;-20
2022/01/04 00:16:57;;;;;;;15.75;7.93;;;;;;;7.04;73.32;99961.00;5088361;28;20031;-19
2022/01/04 00:19:22;;;;;;;13.77;8.13;;;;;;;6.72;73.98;99943.91;5088228;28;20590;-19
2022/01/04 00:21:48;;;;;;;15.73;8.32;;;;;;;7.03;74.17;99969.97;5088377;28;20445;-20
2022/01/04 00:24:13;;;;;;;16.73;8.52;;;;;;;6.95;73.64;99968.31;5088156;28;20036;-20
2022/01/04 00:26:39;;;;;;;262.17;133.68;;;;;;;7.11;72.53;99955.69;5088121;28;20032;-20
2022/01/04 00:29:04;;;;;;;128.57;64.72;;;;;;;7.31;71.56;99969.03;5087851;28;20580;-20
2022/01/04 00:31:29;;;;;;;15.32;8.60;;;;;;;7.07;72.05;99950.00;5088187;28;20048;-20
2022/01/04 00:33:55;;;;;;;14.85;7.72;;;;;;;7.13;72.40;99964.28;5087828;28;20028;-19
2022/01/04 00:36:20;;;;;;;10.90;6.18;;;;;;;7.06;72.23;99966.09;5088118;28;20043;-20
2022/01/04 00:38:46;;;;;;;11.68;6.53;;;;;;;6.83;72.72;99962.75;5069908;28;20412;-20
2022/01/04 00:41:11;;;;;;;12.98;6.57;;;;;;;7.05;72.07;99973.25;5087749;28;20035;-20
2022/01/04 00:43:37;;;;;;;12.27;6.82;;;;;;;7.33;70.79;99981.06;5068608;28;20032;-20
2022/01/04 00:46:02;;;;;;;10.27;5.68;;;;;;;7.58;70.36;99972.56;5087866;28;20480;-20
2022/01/04 00:50:53;;;;;;;13.07;6.43;;;;;;;7.72;69.54;99962.78;5069803;28;20032;-20
2022/01/04 00:53:19;;;;;;;16.00;8.25;;;;;;;7.70;69.07;99964.84;5087920;28;20089;-19
2022/01/04 00:55:45;;;;;;;12.68;6.63;;;;;;;7.61;69.83;99962.38;5069735;28;20069;-20
2022/01/04 00:58:10;;;;;;;14.13;7.10;;;;;;;7.55;70.17;99979.09;5087750;28;20036;-20
2022/01/04 01:00:36;;;;;;;11.65;6.45;;;;;;;7.49;69.68;99956.03;5069473;28;20035;-20
2022/01/04 01:03:01;;;;;;;13.32;6.93;;;;;;;7.43;70.45;99970.91;5087751;28;20039;-20
2022/01/04 01:05:27;;;;;;;13.52;6.28;;;;;;;7.74;68.72;99966.06;5087517;28;20043;-20
2022/01/04 01:07:53;;;;;;;14.80;6.90;;;;;;;7.82;68.89;99963.22;5069590;28;20450;-19
2022/01/04 01:12:44;;;;;;;9.45;5.65;;;;;;;8.00;67.21;99954.63;5087558;28;20043;-20
2022/01/04 01:15:10;;;;;;;14.32;7.88;;;;;;;8.09;67.08;99957.91;5087440;28;20036;-20
2022/01/04 01:17:35;;;;;;;11.27;6.35;;;;;;;7.77;67.54;99957.72;5087467;28;20411;-20
2022/01/04 01:20:01;;;;;;;11.57;5.72;;;;;;;7.75;66.98;99957.09;5087913;28;20467;-20
2022/01/04 01:22:26;;;;;;;8.75;5.30;;;;;;;8.04;65.79;99956.69;5087520;28;20053;-20
2022/01/04 01:24:52;;;;;;;9.15;5.72;;;;;;;8.13;65.08;99959.13;5069443;28;20047;-20
2022/01/04 01:27:17;;;;;;;8.52;4.90;;;;;;;8.24;65.24;99958.53;5069353;28;20546;-19
2022/01/04 01:29:43;;;;;;;10.88;4.95;;;;;;;8.24;64.59;99945.22;5068915;28;20052;-20
2022/01/04 01:32:08;;;;;;;9.10;4.57;;;;;;;8.35;64.31;99963.19;5087230;28;20028;-19
2022/01/04 01:34:34;;;;;;;9.65;5.20;;;;;;;8.40;64.16;99955.44;5087737;28;20028;-19
2022/01/04 01:36:59;;;;;;;9.18;5.30;;;;;;;8.48;64.17;99953.59;5069523;28;20028;-20
2022/01/04 01:39:25;;;;;;;12.00;5.68;;;;;;;8.49;64.05;99947.25;5087417;28;20040;-20
2022/01/04 01:41:52;;;;;;;10.85;4.88;;;;;;;8.42;64.11;99953.41;5087152;28;20431;-20
2022/01/04 01:44:17;;;;;;;9.15;5.13;;;;;;;8.45;64.33;99926.41;5069392;28;20024;-20
2022/01/04 01:46:43;;;;;;;11.32;5.72;;;;;;;8.66;63.39;99940.47;5069223;28;20032;-20
2022/01/04 01:49:08;;;;;;;10.55;5.20;;;;;;;8.82;62.92;99931.19;5087397;28;20465;-21
2022/01/04 01:51:34;;;;;;;14.00;7.47;;;;;;;8.72;62.61;99926.31;5086972;28;20024;-20
2022/01/04 01:53:59;;;;;;;185.60;157.30;;;;;;;8.62;64.17;99936.59;5088761;28;20024;-20
2022/01/04 01:56:25;;;;;;;22.70;20.35;;;;;;;7.93;66.14;99938.72;5090705;28;20071;-19
2022/01/04 01:58:51;;;;;;;15.80;10.02;;;;;;;7.62;68.11;99934.81;5091080;28;20576;-20
2022/01/04 02:01:16;;;;;;;10.30;6.10;;;;;;;7.67;67.64;99933.41;5091180;28;20503;-20
2022/01/04 02:03:42;;;;;;;13.57;10.15;;;;;;;7.57;68.32;99929.28;5090781;28;20028;-20
2022/01/04 02:06:07;;;;;;;11.77;6.80;;;;;;;7.54;68.04;99923.56;5091036;28;20028;-20
2022/01/04 02:08:33;;;;;;;11.75;7.43;;;;;;;7.41;69.25;99932.31;5090943;28;20085;-20
2022/01/04 02:10:58;;;;;;;15.05;8.93;;;;;;;7.52;68.90;99931.75;5090903;28;20032;-19
2022/01/04 02:13:25;;;;;;;13.57;7.18;;;;;;;7.27;69.45;99934.13;5072288;28;20032;-19
2022/01/04 02:15:54;;;;;;;11.57;6.63;;;;;;;7.20;69.42;99928.81;5072680;28;20120;-19
2022/01/04 02:18:20;;;;;;;12.02;6.93;;;;;;;7.24;69.72;99939.84;5090671;28;20059;-20
2022/01/04 02:20:45;;;;;;;12.48;6.97;;;;;;;7.09;70.38;99925.91;5090562;28;20494;-19
2022/01/04 02:23:10;;;;;;;12.95;7.38;;;;;;;7.20;69.49;99950.03;5090879;28;20039;-20
2022/01/04 02:25:36;;;;;;;14.70;7.43;;;;;;;6.97;70.77;99950.38;5072256;28;20051;-20
2022/01/04 02:28:01;;;;;;;14.93;8.48;;;;;;;6.57;71.33;99931.63;5090865;28;20036;-20
2022/01/04 02:30:27;;;;;;;15.70;7.68;;;;;;;6.67;71.76;99955.13;5090374;28;20063;-20
2022/01/04 02:32:53;;;;;;;12.93;6.95;;;;;;;6.46;72.72;99971.09;5090375;28;20115;-20
2022/01/04 02:35:21;;;;;;;13.48;6.72;;;;;;;6.16;73.52;99958.88;5055466;28;20032;-19
2022/01/04 02:37:46;;;;;;;11.13;6.72;;;;;;;6.04;74.46;99937.41;5072363;28;20043;-20
2022/01/04 02:40:12;;;;;;;10.27;6.28;;;;;;;6.13;74.33;99955.78;5090100;28;20028;-20
2022/01/04 02:42:38;;;;;;;11.38;7.07;;;;;;;6.10;73.66;99948.25;5090680;28;20401;-20
2022/01/04 02:45:04;;;;;;;13.20;6.38;;;;;;;6.22;74.20;99973.19;5090369;28;20028;-20
2022/01/04 02:47:29;;;;;;;14.05;6.97;;;;;;;6.43;73.11;99973.09;5089989;28;20035;-20
2022/01/04 02:49:55;;;;;;;12.80;6.95;;;;;;;6.45;73.22;99962.31;5090646;28;20032;-20
2022/01/04 02:52:21;;;;;;;13.40;7.35;;;;;;;6.46;72.82;99952.53;5055635;28;20027;-20
2022/01/04 02:54:46;;;;;;;11.40;6.78;;;;;;;6.39;72.51;99963.91;5090109;28;20412;-20
2022/01/04 02:57:12;;;;;;;13.50;7.32;;;;;;;6.22;73.42;99962.59;5090044;28;20092;-20
2022/01/04 02:59:37;;;;;;;12.98;8.05;;;;;;;5.99;73.62;99928.41;5089788;28;20031;-20
2022/01/04 03:02:04;;;;;;;14.15;7.68;;;;;;;5.96;73.91;99932.25;5089956;28;20039;-20
2022/01/04 03:04:29;;;;;;;19.80;10.23;;;;;;;6.11;72.57;99961.28;5090205;28;20526;-20
2022/01/04 03:06:55;;;;;;;13.07;7.30;;;;;;;5.95;73.96;99965.03;5088946;28;20110;-20
2022/01/04 03:09:20;;;;;;;15.25;8.13;;;;;;;5.62;75.13;99952.28;5089787;28;20560;-20
2022/01/04 03:11:46;;;;;;;11.55;7.68;;;;;;;5.75;74.99;99962.16;5089447;28;20042;-20
2022/01/04 03:14:11;;;;;;;44.33;20.63;;;;;;;6.00;74.03;99956.50;5089854;28;20024;-20
2022/01/04 03:16:37;;;;;;;13.00;7.85;;;;;;;5.66;74.16;99949.25;5089713;28;20097;-20
2022/01/04 03:19:03;;;;;;;13.90;7.65;;;;;;;5.44;75.23;99949.25;5090066;28;20032;-20
2022/01/04 03:21:39;;;;;;;18.20;9.70;;;;;;;5.43;75.62;99951.09;5089383;28;20119;-20
2022/01/04 03:24:05;;;;;;;24.05;12.10;;;;;;;5.31;75.91;99931.44;5089445;28;20035;-20
2022/01/04 03:26:30;;;;;;;14.75;8.38;;;;;;;5.23;76.11;99929.72;5071040;28;20107;-20
2022/01/04 03:28:56;;;;;;;14.38;7.55;;;;;;;5.34;76.12;99935.53;5089927;28;20119;-20
2022/01/04 03:31:22;;;;;;;17.33;8.30;;;;;;;5.70;74.45;99953.16;5071050;28;20044;-19
2022/01/04 03:33:47;;;;;;;69.80;29.83;;;;;;;5.97;73.61;99976.25;5089110;28;20088;-20
2022/01/04 03:36:14;;;;;;;117.45;47.40;;;;;;;5.86;73.03;99963.47;5089102;28;20124;-21
2022/01/04 03:38:40;;;;;;;107.47;45.40;;;;;;;5.66;74.00;99967.78;5089421;28;20039;-20
2022/01/04 08:19:07;;;;;;;24.50;12.45;;;;;;;7.42;76.39;100079.91;4808380;27;8299519;-20
2022/01/04 08:21:32;;;;;;;17.50;10.52;;;;;;;8.02;72.38;100078.22;5105292;28;20127;-21
2022/01/04 08:23:58;;;;;;;16.23;8.73;;;;;;;8.75;68.67;100084.63;5105622;28;20091;-20
2022/01/04 08:26:24;;;;;;;16.27;8.95;;;;;;;9.14;66.60;100082.94;5105313;28;20066;-21
2022/01/04 08:28:50;;;;;;;15.80;9.05;;;;;;;9.52;66.10;100085.66;5105031;28;20048;-23
2022/01/04 08:31:15;;;;;;;12.68;7.82;;;;;;;9.73;63.96;100073.06;5105463;28;20063;-21
2022/01/04 08:33:41;;;;;;;16.33;8.63;;;;;;;9.83;62.77;100068.91;5105064;28;20032;-20
2022/01/04 08:36:09;;;;;;;15.85;9.05;;;;;;;10.11;61.57;100065.03;5105295;28;20027;-20
2022/01/04 08:38:34;;;;;;;18.40;10.63;;;;;;;10.27;61.58;100055.69;5104756;28;20092;-20
2022/01/04 08:41:00;;;;;;;23.00;15.52;;;;;;;10.64;58.67;100063.84;5105106;28;20979;-20
2022/01/04 08:43:26;;;;;;;25.15;14.70;;;;;;;10.70;60.19;100065.63;5105238;28;20086;-20
2022/01/04 08:45:52;;;;;;;19.90;13.40;;;;;;;11.22;59.35;100067.97;5104991;28;20046;-20
2022/01/04 08:48:17;;;;;;;17.27;11.95;;;;;;;11.69;55.94;100057.53;5104931;28;20463;-21
2022/01/04 08:50:44;;;;;;;19.88;12.18;;;;;;;11.86;56.23;100068.38;5105288;28;20437;-20
2022/01/04 08:53:11;;;;;;;18.17;10.93;;;;;;;12.19;54.29;100051.06;5104920;28;20055;-20
2022/01/04 08:55:38;;;;;;;14.65;8.77;;;;;;;12.33;51.71;100047.16;5104960;28;20039;-21
2022/01/04 08:58:04;;;;;;;14.07;9.05;;;;;;;12.56;51.98;100058.91;5105049;28;20028;-20
2022/01/04 09:00:29;;;;;;;15.10;9.00;;;;;;;12.49;54.04;100060.91;5104851;28;20024;-20
2022/01/04 09:02:54;;;;;;;12.18;7.30;;;;;;;12.53;49.95;100062.06;5104730;28;20047;-20
2022/01/04 09:05:20;;;;;;;11.70;7.47;;;;;;;12.44;51.04;100054.38;5104729;28;20096;-20
2022/01/04 09:07:45;;;;;;;15.85;8.27;;;;;;;12.45;51.37;100045.28;5103478;28;20105;-20
2022/01/04 09:10:11;;;;;;;11.52;6.32;;;;;;;12.63;49.44;100051.59;5104806;28;20519;-21
2022/01/04 09:13:15;;;;;;;14.93;8.30;;;;;;;13.09;48.29;100043.75;5104783;28;20032;-20
2022/01/04 09:15:45;;;;;;;11.93;6.13;;;;;;;13.43;46.94;100040.19;5103290;28;20114;-20
2022/01/04 09:20:55;;;;;;;12.18;7.53;;;;;;;14.23;45.83;100035.72;5124647;28;20046;-20
2022/01/04 09:23:21;;;;;;;10.40;5.50;;;;;;;14.15;44.61;100046.03;5124890;28;20032;-22
2022/01/04 09:25:47;;;;;;;12.93;7.65;;;;;;;14.14;45.21;100036.34;5124553;28;20034;-20
2022/01/04 09:28:12;;;;;;;14.68;8.07;;;;;;;13.91;47.03;100040.78;5123164;28;20122;-21
2022/01/04 09:30:39;;;;;;;16.65;9.50;;;;;;;13.50;47.28;100021.28;5110654;28;20020;-21
2022/01/04 09:33:05;;;;;;;15.10;8.27;;;;;;;13.35;47.60;100037.91;5110754;28;20027;-21
2022/01/04 09:35:32;;;;;;;22.40;12.75;;;;;;;14.09;47.72;100031.72;5093065;28;20513;-21
2022/01/04 09:37:58;;;;;;;15.73;8.13;;;;;;;14.27;47.34;100025.31;5110736;28;20407;-21
2022/01/04 09:40:23;;;;;;;12.00;6.80;;;;;;;14.37;47.46;100027.34;5091006;28;20035;-20
2022/01/04 09:42:49;;;;;;;10.55;6.72;;;;;;;14.36;46.03;100021.16;5110884;28;20032;-21
2022/01/04 09:45:15;;;;;;;10.75;5.88;;;;;;;14.54;47.35;100028.13;5092189;28;20035;-21
2022/01/04 09:47:40;;;;;;;10.15;5.93;;;;;;;14.75;47.94;100018.56;5110747;28;20028;-21
2022/01/04 09:50:10;;;;;;;9.35;5.20;;;;;;;14.52;46.78;100000.72;5110724;28;20077;-21
2022/01/04 09:52:39;;;;;;;11.27;5.80;;;;;;;14.46;47.65;99994.50;5110659;28;20034;-21
2022/01/04 09:55:04;;;;;;;11.35;5.63;;;;;;;14.56;48.31;100001.09;5110665;28;20019;-20
2022/01/04 09:57:30;;;;;;;11.82;7.18;;;;;;;14.65;48.21;99986.22;5110579;28;20413;-21
2022/01/04 09:59:55;;;;;;;11.35;6.32;;;;;;;14.99;47.42;99965.41;5110401;28;20027;-21
2022/01/04 10:02:21;;;;;;;8.75;5.75;;;;;;;14.76;46.95;99985.28;5111023;28;20033;-21
2022/01/04 10:04:47;;;;;;;9.20;6.03;;;;;;;15.14;45.46;99986.28;5110518;28;20027;-21
2022/01/04 10:07:12;;;;;;;9.68;5.95;;;;;;;15.26;45.63;99994.19;5110490;28;20059;-21
2022/01/04 10:09:44;;;;;;;10.13;5.68;;;;;;;15.40;44.74;99981.19;5110269;28;20432;-21
2022/01/04 10:12:10;;;;;;;10.18;5.38;;;;;;;15.47;45.09;99976.44;5110642;28;20038;-21
2022/01/04 10:14:41;;;;;;;8.52;5.13;;;;;;;15.82;44.93;99975.97;5110147;28;20074;-21
2022/01/04 10:17:28;;;;;;;11.23;6.32;;;;;;;16.20;44.50;99974.13;5109507;28;20036;-20
2022/01/04 10:19:55;;;;;;;12.38;6.07;;;;;;;16.25;44.60;99970.66;5110191;28;20031;-21
2022/01/04 10:22:24;;;;;;;8.93;5.68;;;;;;;15.91;44.05;99954.81;5110159;28;20092;-21
2022/01/04 10:25:07;;;;;;;10.70;6.43;;;;;;;15.93;42.95;99947.28;5110092;28;20039;-22
2022/01/04 10:27:37;;;;;;;10.15;6.38;;;;;;;15.76;43.68;99952.81;5110378;28;20023;-21
2022/01/04 10:30:16;;;;;;;12.82;6.68;;;;;;;16.35;42.60;99951.91;5109842;28;20077;-21
2022/01/04 10:32:55;;;;;;;12.35;7.40;;;;;;;16.12;42.91;99928.06;5110050;28;20032;-21
2022/01/04 10:35:20;;;;;;;10.13;6.80;;;;;;;16.34;43.74;99939.50;5109713;28;20285;-21
2022/01/04 10:37:45;;;;;;;9.50;5.43;;;;;;;15.56;43.89;99925.72;5109845;28;20119;-21
2022/01/04 10:40:11;;;;;;;13.15;7.38;;;;;;;15.98;44.66;99923.13;5109381;28;20022;-20
2022/01/04 10:42:37;;;;;;;11.48;7.15;;;;;;;16.19;43.80;99928.66;5109576;28;20031;-21
2022/01/04 10:45:22;;;;;;;9.95;5.95;;;;;;;16.55;43.08;99912.69;5091133;28;20028;-21
2022/01/04 10:47:48;;;;;;;9.77;6.32;;;;;;;16.96;42.74;99904.78;5108978;28;20054;-20
2022/01/04 10:50:27;;;;;;;9.57;6.07;;;;;;;17.12;43.33;99901.09;5109668;28;20039;-20
2022/01/04 10:52:53;;;;;;;13.10;7.15;;;;;;;16.60;42.73;99902.75;5093109;28;20089;-21
2022/01/04 10:55:18;;;;;;;15.60;7.55;;;;;;;16.77;43.00;99902.56;5091440;28;20027;-21
2022/01/04 10:57:44;;;;;;;12.05;7.60;;;;;;;17.19;41.67;99888.16;5109554;28;20031;-29
2022/01/04 11:00:16;;;;;;;13.73;7.57;;;;;;;17.47;40.27;99894.13;5109266;28;20035;-22
2022/01/04 11:02:42;;;;;;;14.07;7.68;;;;;;;17.90;41.04;99889.31;5109314;28;20096;-20
2022/01/04 11:05:14;;;;;;;11.73;7.47;;;;;;;17.98;40.67;99867.16;5109178;28;20031;-20
2022/01/04 11:08:17;;;;;;;12.82;8.27;;;;;;;17.70;40.74;99882.00;5109129;28;20027;-21
2022/01/04 11:10:43;;;;;;;17.92;10.07;;;;;;;18.02;40.97;99857.44;5006547;28;20029;-20
2022/01/04 11:13:08;;;;;;;50.25;25.45;;;;;;;18.85;39.08;99857.97;5089035;28;20146;-20
2022/01/04 11:15:34;;;;;;;17.35;11.23;;;;;;;18.33;38.97;99868.16;5109226;28;20028;-20
2022/01/04 11:17:59;;;;;;;11.82;7.18;;;;;;;18.37;37.99;99850.31;5108464;28;20047;-20
2022/01/04 11:20:25;;;;;;;10.25;6.18;;;;;;;18.25;40.27;99849.81;5109124;28;20444;-21
2022/01/04 11:22:50;;;;;;;11.35;4.90;;;;;;;18.37;38.66;99858.41;5108744;28;20043;-22
2022/01/04 11:25:19;;;;;;;7.90;4.07;;;;;;;18.57;39.45;99848.59;5109290;28;20034;-21
2022/01/04 11:27:45;;;;;;;7.20;4.45;;;;;;;18.46;37.94;99840.56;5108769;28;20047;-20
2022/01/04 11:30:30;;;;;;;8.95;4.85;;;;;;;18.21;39.55;99843.38;5090720;28;20107;-21
2022/01/04 11:32:59;;;;;;;10.90;4.57;;;;;;;18.72;38.59;99840.44;5090528;28;20024;-21
2022/01/04 11:35:26;;;;;;;7.82;5.15;;;;;;;19.11;38.11;99853.22;5091041;28;20027;-20
2022/01/04 11:37:58;;;;;;;9.20;5.50;;;;;;;19.66;36.80;99855.75;5108876;28;20031;-20
2022/01/04 11:40:36;;;;;;;7.60;4.88;;;;;;;19.57;37.29;99841.22;5108552;28;20107;-21
2022/01/04 11:43:03;;;;;;;9.30;4.63;;;;;;;20.18;36.90;99839.81;5108344;28;20051;-20
2022/01/04 11:45:37;;;;;;;15.55;6.30;;;;;;;20.41;36.46;99841.72;5108236;28;20038;-20
2022/01/04 11:48:03;;;;;;;44.75;9.23;;;;;;;19.54;38.11;99828.28;5108389;28;20032;-20
2022/01/04 11:50:35;;;;;;;9.15;4.63;;;;;;;19.86;36.79;99841.28;5108716;28;20034;-21
2022/01/04 11:53:06;;;;;;;7.47;4.50;;;;;;;19.20;37.69;99832.59;5090839;28;20118;-20
2022/01/04 11:55:36;;;;;;;10.18;4.72;;;;;;;19.67;37.83;99825.69;5108526;28;20039;-20
2022/01/04 11:58:08;;;;;;;9.50;5.10;;;;;;;19.78;37.13;99822.94;5108135;28;20038;-21
2022/01/04 12:00:35;;;;;;;7.18;4.53;;;;;;;20.13;37.04;99831.78;5108364;28;20059;-21
2022/01/04 12:03:07;;;;;;;8.23;4.53;;;;;;;20.34;36.36;99830.44;5108123;28;20043;-22
2022/01/04 12:05:33;;;;;;;7.03;4.22;;;;;;;20.43;36.66;99826.00;5108426;28;20089;-21
2022/01/04 12:07:59;;;;;;;6.85;4.63;;;;;;;20.97;35.60;99799.53;5073459;28;20509;-21
2022/01/04 12:10:25;;;;;;;16.67;8.15;;;;;;;20.24;37.02;99808.88;5108370;28;20042;-20
2022/01/04 12:12:59;;;;;;;32.65;16.10;;;;;;;19.74;37.15;99808.38;5108113;28;20114;-22
2022/01/04 12:15:50;;;;;;;50.38;25.90;;;;;;;19.75;38.25;99785.63;5107931;28;20028;-20
2022/01/04 12:18:22;;;;;;;9.43;6.43;;;;;;;19.93;37.78;99795.72;5102635;28;20113;-20
2022/01/04 12:20:52;;;;;;;11.35;7.25;;;;;;;20.63;37.60;99786.19;5108211;28;20575;-20
2022/01/04 12:23:23;;;;;;;12.60;6.00;;;;;;;20.21;37.63;99782.41;5108104;28;20038;-21
2022/01/04 12:26:12;;;;;;;11.13;5.68;;;;;;;19.92;37.97;99777.88;5108209;28;20028;-20
2022/01/04 12:28:37;;;;;;;10.52;5.40;;;;;;;20.07;37.70;99774.19;5108451;28;20118;-21
2022/01/04 12:33:41;;;;;;;9.02;5.07;;;;;;;21.32;36.14;99774.84;5108312;28;20111;-20
2022/01/04 12:36:07;;;;;;;10.93;5.40;;;;;;;21.77;34.82;99756.16;5108007;28;20039;-20
2022/01/04 12:38:33;;;;;;;9.77;5.88;;;;;;;22.14;34.77;99757.03;5108218;28;20038;-20
2022/01/04 12:41:00;;;;;;;7.30;4.80;;;;;;;22.08;34.97;99768.00;5107840;28;20107;-21
2022/01/04 12:43:27;;;;;;;10.48;4.75;;;;;;;22.16;35.40;99754.84;5107803;28;20542;-22
2022/01/04 12:46:02;;;;;;;11.73;5.00;;;;;;;22.40;34.95;99768.22;5090106;28;20031;-20
2022/01/04 12:48:51;;;;;;;9.55;5.30;;;;;;;21.99;36.31;99764.41;5108069;28;20028;-20
2022/01/04 12:51:26;;;;;;;6.32;4.78;;;;;;;22.17;35.57;99770.00;5107893;28;20027;-21
2022/01/04 12:53:52;;;;;;;7.72;5.38;;;;;;;22.34;35.42;99769.44;5107603;28;20062;-21
2022/01/04 12:56:17;;;;;;;9.02;5.10;;;;;;;22.21;35.08;99760.97;5108094;28;20072;-20
2022/01/04 12:58:43;;;;;;;8.35;5.03;;;;;;;21.72;36.04;99751.63;5107890;28;20040;-20
2022/01/04 13:01:09;;;;;;;7.93;4.75;;;;;;;21.54;36.57;99737.03;5107629;28;20873;-20
2022/01/04 13:03:34;;;;;;;7.25;4.05;;;;;;;21.99;35.27;99750.81;5108155;28;20415;-20
2022/01/04 13:06:00;;;;;;;7.32;4.80;;;;;;;22.23;35.04;99752.50;5111720;28;20032;-21
2022/01/04 13:08:29;;;;;;;9.65;4.82;;;;;;;23.17;33.45;99752.84;5093392;28;20035;-20
2022/01/04 13:11:08;;;;;;;7.13;4.55;;;;;;;22.87;34.03;99745.09;5111757;28;20479;-20
2022/01/04 13:13:33;;;;;;;8.13;5.10;;;;;;;23.18;33.61;99741.66;5110888;28;20038;-20
2022/01/04 13:16:29;;;;;;;8.60;4.70;;;;;;;23.95;31.67;99745.06;5111862;28;20024;-21
2022/01/04 13:19:16;;;;;;;6.75;5.20;;;;;;;24.09;31.51;99725.88;5110924;28;20510;-20
2022/01/04 13:21:42;;;;;;;9.25;4.95;;;;;;;24.35;31.23;99736.00;5111344;28;20028;-20
2022/01/04 13:24:08;;;;;;;14.77;10.25;;;;;;;22.71;33.52;99732.97;5111252;28;20031;-20
2022/01/04 13:26:33;;;;;;;36.65;32.63;;;;;;;22.73;33.20;99706.31;5111416;28;20035;-20
2022/01/04 13:28:59;;;;;;;73.38;63.95;;;;;;;22.61;34.49;99727.78;5111329;28;20055;-21
2022/01/04 13:31:25;;;;;;;140.30;128.45;;;;;;;23.77;32.79;99735.25;5111215;28;20475;-21
2022/01/04 13:33:51;;;;;;;147.35;134.50;;;;;;;24.19;32.68;99724.75;5111537;28;20031;-20
2022/01/04 13:36:16;;;;;;;40.38;36.90;;;;;;;24.23;32.31;99728.44;5111161;28;20031;-20
2022/01/04 13:38:42;;;;;;;74.72;68.90;;;;;;;23.62;33.37;99712.75;5092876;28;20028;-21
2022/01/04 13:41:08;;;;;;;14.63;11.88;;;;;;;22.12;35.76;99702.22;5111256;28;20039;-22
2022/01/04 13:43:40;;;;;;;10.55;7.10;;;;;;;22.65;35.58;99710.56;5110978;28;20042;-21
2022/01/04 13:46:15;;;;;;;9.13;6.55;;;;;;;22.20;36.15;99713.19;5111242;28;20039;-21
2022/01/04 13:48:44;;;;;;;8.77;5.00;;;;;;;21.65;37.08;99703.16;5110888;28;20096;-20
2022/01/04 13:51:12;;;;;;;9.50;6.47;;;;;;;22.55;35.32;99705.34;5110303;28;20487;-21
2022/01/04 13:53:41;;;;;;;13.00;10.52;;;;;;;21.53;37.23;99681.16;5110858;28;20063;-21
2022/01/04 13:56:10;;;;;;;11.10;8.52;;;;;;;20.17;39.92;99676.59;5111113;28;20031;-20
2022/01/04 13:58:45;;;;;;;13.68;7.13;;;;;;;18.79;43.27;99683.47;5110722;28;20039;-20
2022/01/04 14:01:15;;;;;;;14.18;8.70;;;;;;;17.13;46.75;99672.88;5110467;28;20486;-20
2022/01/04 14:03:41;;;;;;;19.70;11.40;;;;;;;16.55;48.86;99673.13;5110598;28;20410;-20
2022/01/04 14:06:40;;;;;;;37.25;18.02;;;;;;;16.06;50.54;99667.13;5110548;28;20027;-20
2022/01/04 14:09:33;;;;;;;15.32;7.90;;;;;;;14.95;53.58;99668.13;5110265;28;20115;-21
2022/01/04 14:12:01;;;;;;;14.88;8.95;;;;;;;14.97;54.12;99666.00;5110653;28;20043;-20
2022/01/04 14:14:44;;;;;;;79.05;66.63;;;;;;;14.63;54.85;99650.19;5110841;28;20038;-20
2022/01/04 14:17:10;;;;;;;30.15;27.65;;;;;;;14.56;55.41;99649.56;5092084;28;20499;-20
2022/01/04 14:19:49;;;;;;;26.58;24.38;;;;;;;14.43;55.53;99651.56;5110566;28;20047;-21
2022/01/04 14:22:22;;;;;;;17.55;13.00;;;;;;;14.43;55.24;99640.03;5110164;28;20031;-21
2022/01/04 14:24:53;;;;;;;45.05;26.83;;;;;;;14.39;55.89;99650.47;5111007;28;20521;-20
2022/01/04 14:27:29;;;;;;;14.52;9.93;;;;;;;14.01;57.07;99654.88;5110312;28;20513;-21
2022/01/04 14:30:04;;;;;;;11.88;8.43;;;;;;;13.97;57.86;99651.09;5091937;28;20031;-20
2022/01/04 14:32:34;;;;;;;19.17;14.48;;;;;;;13.75;57.99;99628.84;5110271;28;20019;-20
2022/01/04 14:35:19;;;;;;;13.88;9.18;;;;;;;13.70;59.12;99645.69;5109726;28;20027;-21
2022/01/04 14:37:46;;;;;;;14.52;12.57;;;;;;;13.23;60.36;99633.53;5110222;28;20061;-21
2022/01/04 14:40:15;;;;;;;11.52;9.63;;;;;;;13.04;61.83;99646.41;5110060;28;20042;-20
2022/01/04 14:42:40;;;;;;;11.20;9.02;;;;;;;12.91;62.44;99629.88;5110039;28;20027;-21
2022/01/04 14:45:06;;;;;;;20.58;17.83;;;;;;;12.65;63.01;99626.81;5110030;28;20081;-21
2022/01/04 14:47:32;;;;;;;19.83;17.83;;;;;;;12.72;63.96;99645.38;5109594;28;20043;-21
2022/01/04 14:49:57;;;;;;;12.65;10.10;;;;;;;12.62;64.03;99640.66;5110011;28;20104;-20
2022/01/04 14:52:23;;;;;;;15.70;10.98;;;;;;;12.59;64.49;99617.88;5109578;28;20089;-20
2022/01/04 14:54:48;;;;;;;9.90;6.38;;;;;;;12.25;65.64;99638.41;5109516;28;20444;-20
2022/01/04 14:57:14;;;;;;;11.30;7.85;;;;;;;11.93;66.98;99627.41;5109223;28;20027;-20
2022/01/04 14:59:39;;;;;;;10.32;6.60;;;;;;;11.59;67.76;99604.03;5109866;28;20453;-21
2022/01/04 15:02:09;;;;;;;10.98;6.78;;;;;;;11.65;68.38;99629.00;5109353;28;20032;-22
2022/01/04 15:04:34;;;;;;;12.07;8.40;;;;;;;11.48;69.11;99623.53;5109190;28;20027;-21
2022/01/04 15:07:00;;;;;;;9.20;6.38;;;;;;;11.33;69.41;99628.56;5109117;28;20032;-20
2022/01/04 15:09:25;;;;;;;11.80;5.95;;;;;;;11.19;70.42;99625.34;5108994;28;20024;-20
2022/01/04 15:11:51;;;;;;;10.10;6.80;;;;;;;11.08;69.92;99624.31;5109020;28;20043;-21
2022/01/04 15:14:16;;;;;;;13.10;8.23;;;;;;;11.08;70.53;99624.31;5109212;28;20038;-20
2022/01/04 15:16:42;;;;;;;12.10;7.90;;;;;;;10.86;70.38;99624.88;5109045;28;20027;-20
2022/01/04 15:19:07;;;;;;;12.10;7.97;;;;;;;10.61;71.50;99605.63;5108770;28;20503;-21
2022/01/04 15:21:33;;;;;;;12.00;8.63;;;;;;;10.66;71.57;99624.41;5109162;28;20050;-20
2022/01/04 15:23:58;;;;;;;10.32;6.15;;;;;;;10.54;71.50;99623.56;5109233;28;20038;-21
2022/01/04 15:26:24;;;;;;;11.75;8.20;;;;;;;10.55;70.58;99611.88;5108743;28;20031;-20
2022/01/04 15:28:49;;;;;;;14.45;8.40;;;;;;;10.55;70.86;99625.22;5108960;28;20116;-21
2022/01/04 15:31:14;;;;;;;14.00;8.60;;;;;;;10.41;71.19;99630.72;5108945;28;20040;-20
2022/01/04 15:33:40;;;;;;;19.83;12.63;;;;;;;10.39;71.63;99624.00;5109418;28;20502;-21
2022/01/04 15:36:07;;;;;;;17.58;10.15;;;;;;;10.30;71.94;99623.53;5108920;28;20410;-21
2022/01/04 15:38:33;;;;;;;19.88;12.50;;;;;;;10.31;73.42;99619.81;5108660;28;20118;-21
2022/01/04 15:41:02;;;;;;;25.95;19.52;;;;;;;10.03;73.81;99583.91;5090352;28;20050;-20
2022/01/04 15:43:28;;;;;;;32.90;21.02;;;;;;;10.08;74.68;99614.41;5108568;28;20409;-20
2022/01/04 15:45:54;;;;;;;17.90;11.57;;;;;;;10.03;74.99;99615.06;5108851;28;20111;-21
2022/01/04 15:48:19;;;;;;;18.35;14.43;;;;;;;10.10;74.92;99633.63;5090794;28;20452;-21
2022/01/04 15:50:47;;;;;;;20.30;14.85;;;;;;;10.08;74.97;99609.06;5109010;28;20039;-20
2022/01/04 15:53:13;;;;;;;17.52;12.45;;;;;;;9.96;75.06;99630.31;5108191;28;20471;-21
2022/01/04 15:55:38;;;;;;;16.42;10.88;;;;;;;9.91;75.45;99617.69;5108481;28;20482;-20
2022/01/04 15:58:04;;;;;;;14.85;9.80;;;;;;;9.98;75.17;99630.91;5108347;28;20034;-20
2022/01/04 16:00:29;;;;;;;19.20;14.25;;;;;;;10.03;75.01;99634.53;5108452;28;20487;-20
2022/01/04 16:02:55;;;;;;;19.35;13.60;;;;;;;9.99;74.47;99633.38;5108303;28;20035;-20
2022/01/04 16:05:20;;;;;;;15.80;10.20;;;;;;;10.10;74.52;99649.63;5108572;28;20032;-20
2022/01/04 16:07:46;;;;;;;16.08;11.20;;;;;;;9.83;74.69;99621.47;5108699;28;20399;-21
2022/01/04 16:10:11;;;;;;;16.77;10.68;;;;;;;9.89;75.32;99640.25;5108776;28;20031;-21
2022/01/04 16:12:37;;;;;;;14.77;9.32;;;;;;;9.83;74.75;99634.78;5108755;28;20121;-21
2022/01/04 16:15:06;;;;;;;18.70;11.70;;;;;;;9.86;74.78;99633.53;5108338;28;20027;-21
2022/01/04 16:22:50;;;;;;;30.45;18.48;;;;;;;9.88;74.42;99641.28;5108451;28;20559;-22
2022/01/04 16:25:16;;;;;;;25.55;17.10;;;;;;;9.85;74.24;99645.22;5108253;28;20126;-21